createdAt,value
2023-04-09T00:00:26.154Z,10.24
2023-04-09T00:03:27.790Z,10.27
2023-04-09T00:06:29.647Z,10.30
2023-04-09T00:09:32.091Z,10.35
2023-04-09T00:12:33.718Z,10.39
2023-04-09T00:15:35.385Z,10.44
2023-04-09T00:18:36.974Z,10.48
2023-04-09T00:21:38.652Z,10.51
2023-04-09T00:24:40.515Z,10.52
2023-04-09T00:27:42.110Z,10.52
2023-04-09T00:30:43.897Z,10.49
2023-04-09T00:33:45.603Z,10.48
2023-04-09T00:36:47.210Z,10.48
2023-04-09T00:39:48.844Z,10.47
2023-04-09T00:42:50.724Z,10.46
2023-04-09T00:45:52.391Z,10.47
2023-04-09T00:48:54.823Z,10.46
2023-04-09T00:51:56.631Z,10.44
2023-04-09T00:54:59.753Z,10.41
2023-04-09T00:58:01.813Z,10.36
2023-04-09T01:01:03.728Z,10.31
2023-04-09T01:04:05.525Z,10.26
2023-04-09T01:07:20.424Z,10.22
2023-04-09T01:10:46.710Z,10.17
2023-04-09T01:13:55.776Z,10.12
2023-04-09T01:17:01.030Z,10.10
2023-04-09T01:20:31.752Z,10.10
2023-04-09T01:23:45.644Z,10.10
2023-04-09T01:26:51.428Z,10.07
2023-04-09T01:29:53.681Z,10.01
2023-04-09T01:32:55.761Z,9.94
2023-04-09T01:35:57.979Z,9.89
2023-04-09T01:39:01.685Z,9.84
2023-04-09T01:42:03.975Z,9.80
2023-04-09T01:45:06.453Z,9.75
2023-04-09T01:48:08.461Z,9.71
2023-04-09T01:51:10.378Z,9.68
2023-04-09T01:54:12.020Z,9.65
2023-04-09T01:57:13.634Z,9.60
2023-04-09T02:00:15.751Z,9.57
2023-04-09T02:03:22.294Z,9.57
2023-04-09T02:06:48.940Z,9.55
2023-04-09T02:09:51.430Z,9.55
2023-04-09T02:12:54.611Z,9.56
2023-04-09T02:15:56.665Z,9.56
2023-04-09T02:19:01.257Z,9.57
2023-04-09T02:22:04.732Z,9.59
2023-04-09T02:25:06.979Z,9.62
2023-04-09T02:28:08.528Z,9.62
2023-04-09T02:31:11.412Z,9.62
2023-04-09T02:34:13.052Z,9.65
2023-04-09T02:37:14.707Z,9.66
2023-04-09T02:40:16.306Z,9.66
2023-04-09T02:43:18.004Z,9.67
2023-04-09T02:46:19.694Z,9.68
2023-04-09T02:49:21.360Z,9.69
2023-04-09T02:52:25.999Z,9.71
2023-04-09T02:55:27.704Z,9.75
2023-04-09T02:58:29.440Z,9.77
2023-04-09T03:01:31.343Z,9.78
2023-04-09T03:04:32.969Z,9.78
2023-04-09T03:07:34.633Z,9.77
2023-04-09T03:10:36.209Z,9.75
2023-04-09T03:13:37.932Z,9.73
2023-04-09T03:16:39.603Z,9.70
2023-04-09T03:19:41.302Z,9.69
2023-04-09T03:22:43.366Z,9.71
2023-04-09T03:26:06.318Z,9.72
2023-04-09T03:29:21.097Z,9.75
2023-04-09T03:32:23.047Z,9.77
2023-04-09T03:35:24.997Z,9.80
2023-04-09T03:38:30.391Z,9.82
2023-04-09T03:41:33.994Z,9.84
2023-04-09T03:44:38.469Z,9.84
2023-04-09T03:47:43.393Z,9.84
2023-04-09T03:50:46.103Z,9.85
2023-04-09T03:53:49.326Z,9.86
2023-04-09T03:56:51.198Z,9.85
2023-04-09T03:59:55.961Z,9.83
2023-04-09T04:02:58.259Z,9.80
2023-04-09T04:06:17.667Z,9.78
2023-04-09T04:09:39.475Z,9.78
2023-04-09T04:12:45.970Z,9.79
2023-04-09T04:15:56.862Z,9.81
2023-04-09T04:18:59.029Z,9.82
2023-04-09T04:22:02.550Z,9.83
2023-04-09T04:25:07.581Z,9.82
2023-04-09T04:28:09.727Z,9.79
2023-04-09T04:31:14.933Z,9.74
2023-04-09T04:34:16.673Z,9.70
2023-04-09T04:37:21.340Z,9.69
2023-04-09T04:40:24.038Z,9.63
2023-04-09T04:43:31.310Z,9.61
2023-04-09T04:46:33.415Z,9.63
2023-04-09T04:49:35.111Z,9.66
2023-04-09T04:52:38.946Z,9.68
2023-04-09T04:55:41.013Z,9.69
2023-04-09T04:58:44.652Z,9.68
2023-04-09T05:01:46.559Z,9.68
2023-04-09T05:04:48.498Z,9.69
2023-04-09T05:07:51.750Z,9.73
2023-04-09T05:10:56.233Z,9.80
2023-04-09T05:13:59.511Z,9.88
2023-04-09T05:17:01.288Z,9.96
2023-04-09T05:20:09.703Z,10.06
2023-04-09T05:23:20.109Z,10.14
2023-04-09T05:26:23.076Z,10.20
2023-04-09T05:29:28.312Z,10.27
2023-04-09T05:32:30.046Z,10.34
2023-04-09T05:35:32.625Z,10.41
2023-04-09T05:38:34.830Z,10.49
2023-04-09T05:41:38.693Z,10.56
2023-04-09T05:45:00.875Z,10.63
2023-04-09T05:48:03.060Z,10.70
2023-04-09T05:51:04.763Z,10.75
2023-04-09T05:54:06.684Z,10.80
2023-04-09T05:57:11.357Z,10.84
2023-04-09T06:00:15.321Z,10.86
2023-04-09T06:03:21.033Z,10.88
2023-04-09T06:06:22.693Z,10.88
2023-04-09T06:09:24.340Z,10.88
2023-04-09T06:12:26.013Z,10.89
2023-04-09T06:15:28.112Z,10.89
2023-04-09T06:18:29.831Z,10.88
2023-04-09T06:21:31.514Z,10.88
2023-04-09T06:24:33.404Z,10.90
2023-04-09T06:30:53.613Z,11.01
2023-04-09T06:33:55.942Z,11.05
2023-04-09T06:36:57.960Z,11.12
2023-04-09T06:40:01.384Z,11.22
2023-04-09T06:43:03.638Z,11.36
2023-04-09T06:46:13.712Z,11.50
2023-04-09T06:49:15.448Z,11.65
2023-04-09T06:52:17.029Z,11.78
2023-04-09T06:55:18.819Z,11.86
2023-04-09T06:58:21.296Z,11.97
2023-04-09T07:01:22.958Z,12.07
2023-04-09T07:04:24.834Z,12.17
2023-04-09T07:07:26.547Z,12.26
2023-04-09T07:10:28.176Z,12.34
2023-04-09T07:13:29.758Z,12.41
2023-04-09T07:16:31.446Z,12.47
2023-04-09T07:19:33.119Z,12.52
2023-04-09T07:22:36.376Z,12.61
2023-04-09T07:25:38.069Z,12.69
2023-04-09T07:28:39.974Z,12.77
2023-04-09T07:31:41.685Z,12.86
2023-04-09T07:34:44.261Z,12.93
2023-04-09T07:37:46.381Z,12.99
2023-04-09T07:40:48.693Z,13.05
2023-04-09T07:43:50.505Z,13.11
2023-04-09T07:46:52.168Z,13.19
2023-04-09T07:49:53.737Z,13.30
2023-04-09T07:52:55.528Z,13.42
2023-04-09T07:55:57.162Z,13.54
2023-04-09T07:58:58.809Z,13.63
2023-04-09T08:02:00.561Z,13.72
2023-04-09T08:05:02.632Z,13.81
2023-04-09T08:08:05.413Z,13.90
2023-04-09T08:11:07.280Z,13.93
2023-04-09T08:14:13.010Z,13.99
2023-04-09T08:17:14.688Z,14.05
2023-04-09T08:20:17.212Z,14.07
2023-04-09T08:23:18.902Z,14.11
2023-04-09T08:26:20.413Z,14.20
2023-04-09T08:29:22.045Z,14.28
2023-04-09T08:32:23.695Z,14.38
2023-04-09T08:35:25.411Z,14.45
2023-04-09T08:38:27.361Z,14.53
2023-04-09T08:41:29.589Z,14.66
2023-04-09T08:44:31.287Z,14.82
2023-04-09T08:47:33.871Z,14.97
2023-04-09T08:50:36.064Z,15.10
2023-04-09T08:53:38.823Z,15.21
2023-04-09T08:56:40.439Z,15.34
2023-04-09T08:59:42.013Z,15.49
2023-04-09T09:03:04.421Z,15.61
2023-04-09T09:06:06.512Z,15.79
2023-04-09T09:09:10.117Z,15.86
2023-04-09T09:12:11.689Z,15.96
2023-04-09T09:15:29.929Z,16.08
2023-04-09T09:18:43.072Z,16.24
2023-04-09T09:21:56.302Z,16.35
2023-04-09T09:24:57.859Z,16.45
2023-04-09T09:28:08.380Z,16.57
2023-04-09T09:31:12.900Z,16.67
2023-04-09T09:34:17.121Z,16.79
2023-04-09T09:37:28.441Z,16.98
2023-04-09T09:40:30.097Z,17.22
2023-04-09T09:43:42.270Z,17.40
2023-04-09T09:46:44.166Z,17.47
2023-04-09T09:49:48.419Z,17.45
2023-04-09T09:52:51.196Z,17.35
2023-04-09T09:55:53.885Z,17.38
2023-04-09T09:59:22.218Z,17.41
2023-04-09T10:02:24.749Z,17.50
2023-04-09T10:05:27.883Z,17.54
2023-04-09T10:08:30.790Z,17.49
2023-04-09T10:11:37.564Z,17.47
2023-04-09T10:14:40.471Z,17.49
2023-04-09T10:17:42.069Z,17.54
2023-04-09T10:20:53.053Z,17.58
2023-04-09T10:23:55.642Z,17.43
2023-04-09T10:27:09.745Z,17.44
2023-04-09T10:30:32.006Z,17.56
2023-04-09T10:33:34.438Z,17.63
2023-04-09T10:36:36.550Z,17.75
2023-04-09T10:39:45.085Z,17.87
2023-04-09T10:42:47.557Z,17.98
2023-04-09T10:45:53.573Z,18.12
2023-04-09T10:49:18.206Z,18.09
2023-04-09T10:52:30.290Z,17.74
2023-04-09T10:55:40.549Z,17.48
2023-04-09T10:58:42.141Z,17.30
2023-04-09T11:01:53.612Z,17.26
2023-04-09T11:05:42.628Z,17.21
2023-04-09T11:08:44.418Z,17.08
2023-04-09T11:11:53.261Z,16.90
2023-04-09T11:14:54.839Z,16.87
2023-04-09T11:17:57.832Z,16.88
2023-04-09T11:21:01.316Z,16.89
2023-04-09T11:24:02.971Z,16.94
2023-04-09T11:27:05.516Z,17.09
2023-04-09T11:30:07.938Z,17.35
2023-04-09T11:33:09.748Z,17.57
2023-04-09T11:36:11.390Z,17.52
2023-04-09T11:39:13.093Z,17.42
2023-04-09T11:42:15.667Z,17.33
2023-04-09T11:45:18.147Z,17.20
2023-04-09T11:48:21.840Z,17.09
2023-04-09T11:51:23.602Z,16.97
2023-04-09T11:54:25.791Z,16.84
2023-04-09T11:57:38.420Z,16.75
2023-04-09T12:00:43.194Z,16.75
2023-04-09T12:03:44.937Z,16.79
2023-04-09T12:06:46.699Z,16.73
2023-04-09T12:09:49.040Z,16.69
2023-04-09T12:12:50.595Z,16.58
2023-04-09T12:15:52.668Z,16.48
2023-04-09T12:18:55.873Z,16.42
2023-04-09T12:21:58.537Z,16.47
2023-04-09T12:25:00.558Z,16.56
2023-04-09T12:28:03.331Z,16.73
2023-04-09T12:31:05.024Z,16.96
2023-04-09T12:34:06.884Z,17.25
2023-04-09T12:37:08.538Z,17.37
2023-04-09T12:40:11.983Z,17.50
2023-04-09T12:43:13.653Z,17.66
2023-04-09T12:46:15.848Z,17.78
2023-04-09T12:49:18.375Z,17.86
2023-04-09T12:52:20.079Z,18.09
2023-04-09T12:55:22.331Z,18.37
2023-04-09T12:58:24.293Z,18.56
2023-04-09T13:01:26.022Z,18.86
2023-04-09T13:04:27.904Z,19.12
2023-04-09T13:07:29.846Z,19.36
2023-04-09T13:10:31.407Z,19.57
2023-04-09T13:13:33.646Z,19.74
2023-04-09T13:16:35.228Z,19.86
2023-04-09T13:19:36.809Z,19.93
2023-04-09T13:22:38.440Z,20.09
2023-04-09T13:25:40.073Z,20.14
2023-04-09T13:28:41.791Z,20.09
2023-04-09T13:31:43.353Z,20.05
2023-04-09T13:34:44.910Z,20.04
2023-04-09T13:37:46.499Z,19.98
2023-04-09T13:40:48.206Z,19.98
2023-04-09T13:43:49.777Z,19.99
2023-04-09T13:46:51.490Z,20.01
2023-04-09T13:49:53.306Z,20.11
2023-04-09T13:52:54.912Z,20.24
2023-04-09T13:55:56.521Z,20.31
2023-04-09T13:58:58.084Z,20.44
2023-04-09T14:01:59.755Z,20.66
2023-04-09T14:05:03.704Z,20.97
2023-04-09T14:08:06.139Z,21.17
2023-04-09T14:11:08.208Z,21.15
2023-04-09T14:14:10.707Z,20.98
2023-04-09T14:17:12.319Z,20.97
2023-04-09T14:20:13.957Z,21.10
2023-04-09T14:23:15.568Z,21.30
2023-04-09T14:26:17.297Z,21.59
2023-04-09T14:29:19.712Z,21.74
2023-04-09T14:32:21.376Z,21.69
2023-04-09T14:35:23.378Z,21.59
2023-04-09T14:38:25.183Z,21.38
2023-04-09T14:41:26.852Z,21.11
2023-04-09T14:44:28.543Z,20.80
2023-04-09T14:47:30.527Z,20.48
2023-04-09T14:50:33.954Z,20.18
2023-04-09T14:53:36.384Z,19.85
2023-04-09T14:56:37.978Z,19.52
2023-04-09T14:59:39.594Z,19.18
2023-04-09T15:02:41.604Z,18.89
2023-04-09T15:05:43.568Z,18.61
2023-04-09T15:08:45.524Z,18.36
2023-04-09T15:11:47.193Z,18.13
2023-04-09T15:14:48.709Z,17.92
2023-04-09T15:17:50.702Z,17.70
2023-04-09T15:20:52.289Z,17.49
2023-04-09T15:23:53.941Z,17.32
2023-04-09T15:26:56.856Z,17.18
2023-04-09T15:29:58.513Z,17.01
2023-04-09T15:33:00.509Z,16.85
2023-04-09T15:36:02.202Z,16.69
2023-04-09T15:39:04.482Z,16.56
2023-04-09T15:42:08.761Z,16.43
2023-04-09T15:45:11.746Z,16.26
2023-04-09T15:48:13.404Z,16.11
2023-04-09T15:51:15.022Z,16.00
2023-04-09T15:54:16.670Z,15.88
2023-04-09T15:57:19.411Z,15.77
2023-04-09T16:00:21.241Z,15.66
2023-04-09T16:03:22.966Z,15.55
2023-04-09T16:06:24.776Z,15.44
2023-04-09T16:09:26.539Z,15.34
2023-04-09T16:12:28.115Z,15.25
2023-04-09T16:15:29.748Z,15.13
2023-04-09T16:18:31.369Z,15.01
2023-04-09T16:21:33.373Z,14.90
2023-04-09T16:24:35.012Z,14.80
2023-04-09T16:27:36.647Z,14.71
2023-04-09T16:30:38.333Z,14.64
2023-04-09T16:33:39.944Z,14.56
2023-04-09T16:36:41.829Z,14.49
2023-04-09T16:39:43.421Z,14.42
2023-04-09T16:42:45.076Z,14.35
2023-04-09T16:45:46.717Z,14.30
2023-04-09T16:48:48.358Z,14.26
2023-04-09T16:51:51.941Z,14.21
2023-04-09T16:54:53.577Z,14.16
2023-04-09T16:57:56.794Z,14.13
2023-04-09T17:00:59.293Z,14.10
2023-04-09T17:04:03.081Z,14.07
2023-04-09T17:07:04.854Z,14.03
2023-04-09T17:10:07.102Z,14.01
2023-04-09T17:13:08.849Z,13.97
2023-04-09T17:16:11.883Z,13.94
2023-04-09T17:19:13.913Z,13.92
2023-04-09T17:22:17.803Z,13.89
2023-04-09T17:25:20.474Z,13.86
2023-04-09T17:28:22.122Z,13.85
2023-04-09T17:31:24.205Z,13.82
2023-04-09T17:34:26.230Z,13.80
2023-04-09T17:37:28.907Z,13.78
2023-04-09T17:40:30.481Z,13.75
2023-04-09T17:43:32.087Z,13.72
2023-04-09T17:46:33.743Z,13.68
2023-04-09T17:49:35.639Z,13.64
2023-04-09T17:52:37.530Z,13.61
2023-04-09T17:55:39.234Z,13.57
2023-04-09T17:58:41.359Z,13.55
2023-04-09T18:01:43.049Z,13.52
2023-04-09T18:04:44.895Z,13.49
2023-04-09T18:07:47.030Z,13.45
2023-04-09T18:10:58.885Z,13.39
2023-04-09T18:14:12.892Z,13.33
2023-04-09T18:17:16.249Z,13.29
2023-04-09T18:20:18.166Z,13.23
2023-04-09T18:23:19.848Z,13.20
2023-04-09T18:26:21.413Z,13.16
2023-04-09T18:29:22.976Z,13.13
2023-04-09T18:32:25.303Z,13.09
2023-04-09T18:35:27.062Z,13.05
2023-04-09T18:38:31.689Z,13.03
2023-04-09T18:41:33.269Z,13.00
2023-04-09T18:44:37.212Z,12.98
2023-04-09T18:47:39.006Z,12.96
2023-04-09T18:50:41.035Z,12.94
2023-04-09T18:53:42.694Z,12.92
2023-04-09T18:56:46.583Z,12.90
2023-04-09T18:59:48.251Z,12.87
2023-04-09T19:02:50.154Z,12.85
2023-04-09T19:05:52.011Z,12.83
2023-04-09T19:08:58.836Z,12.81
2023-04-09T19:12:02.019Z,12.77
2023-04-09T19:15:04.870Z,12.75
2023-04-09T19:18:06.992Z,12.73
2023-04-09T19:21:09.086Z,12.70
2023-04-09T19:24:10.829Z,12.68
2023-04-09T19:27:13.252Z,12.65
2023-04-09T19:30:14.865Z,12.62
2023-04-09T19:33:16.583Z,12.59
2023-04-09T19:36:18.197Z,12.56
2023-04-09T19:39:19.983Z,12.52
2023-04-09T19:42:21.546Z,12.48
2023-04-09T19:45:23.198Z,12.44
2023-04-09T19:48:24.780Z,12.38
2023-04-09T19:51:27.385Z,12.27
2023-04-09T19:54:29.012Z,12.16
2023-04-09T19:57:31.945Z,12.07
2023-04-09T20:00:34.633Z,12.02
2023-04-09T20:03:36.399Z,11.98
2023-04-09T20:06:38.039Z,11.97
2023-04-09T20:09:42.425Z,11.93
2023-04-09T20:12:47.520Z,11.91
2023-04-09T20:15:50.128Z,11.90
2023-04-09T20:18:51.958Z,11.87
2023-04-09T20:21:54.858Z,11.86
2023-04-09T20:24:56.730Z,11.85
2023-04-09T20:27:58.352Z,11.84
2023-04-09T20:31:03.033Z,11.85
2023-04-09T20:34:04.620Z,11.85
2023-04-09T20:37:06.716Z,11.84
2023-04-09T20:40:08.734Z,11.85
2023-04-09T20:43:10.460Z,11.85
2023-04-09T20:46:12.450Z,11.85
2023-04-09T20:49:14.270Z,11.86
2023-04-09T20:52:16.022Z,11.84
2023-04-09T20:55:17.947Z,11.84
2023-04-09T20:58:20.444Z,11.85
2023-04-09T21:01:22.272Z,11.85
2023-04-09T21:04:25.568Z,11.86
2023-04-09T21:07:29.108Z,11.87
2023-04-09T21:10:31.181Z,11.88
2023-04-09T21:13:40.541Z,11.88
2023-04-09T21:16:48.564Z,11.87
2023-04-09T21:19:51.678Z,11.86
2023-04-09T21:22:54.282Z,11.86
2023-04-09T21:25:55.952Z,11.86
2023-04-09T21:28:57.627Z,11.85
2023-04-09T21:32:00.546Z,11.85
2023-04-09T21:35:02.204Z,11.85
2023-04-09T21:38:03.922Z,11.84
2023-04-09T21:41:05.649Z,11.82
2023-04-09T21:44:09.888Z,11.81
2023-04-09T21:47:12.290Z,11.79
2023-04-09T21:50:14.670Z,11.77
2023-04-09T21:53:16.591Z,11.76
2023-04-09T21:56:18.209Z,11.74
2023-04-09T21:59:22.963Z,11.70
2023-04-09T22:02:24.888Z,11.68
2023-04-09T22:05:30.604Z,11.64
2023-04-09T22:08:33.367Z,11.59
2023-04-09T22:11:35.748Z,11.56
2023-04-09T22:14:38.548Z,11.53
2023-04-09T22:17:41.630Z,11.50
2023-04-09T22:20:43.303Z,11.48
2023-04-09T22:23:44.938Z,11.47
2023-04-09T22:26:46.938Z,11.45
2023-04-09T22:29:48.511Z,11.42
2023-04-09T22:32:51.568Z,11.38
2023-04-09T22:35:53.773Z,11.35
2023-04-09T22:38:55.612Z,11.32
2023-04-09T22:41:58.416Z,11.28
2023-04-09T22:45:00.036Z,11.25
2023-04-09T22:48:01.874Z,11.21
2023-04-09T22:51:03.612Z,11.19
2023-04-09T22:54:05.764Z,11.17
2023-04-09T22:57:07.371Z,11.14
2023-04-09T23:00:09.233Z,11.12
2023-04-09T23:03:10.904Z,11.09
2023-04-09T23:06:12.590Z,11.05
2023-04-09T23:09:14.146Z,11.00
2023-04-09T23:12:16.095Z,10.95
2023-04-09T23:15:17.858Z,10.92
2023-04-09T23:18:19.467Z,10.87
2023-04-09T23:21:21.188Z,10.83
2023-04-09T23:24:22.807Z,10.78
2023-04-09T23:27:28.452Z,10.74
2023-04-09T23:30:30.323Z,10.68
2023-04-09T23:33:32.661Z,10.58
2023-04-09T23:36:34.249Z,10.48
2023-04-09T23:39:35.910Z,10.39
2023-04-09T23:42:37.505Z,10.28
2023-04-09T23:45:39.110Z,10.18
2023-04-09T23:48:40.776Z,10.10
2023-04-09T23:51:42.312Z,10.03
2023-04-09T23:54:53.396Z,9.97
2023-04-09T23:57:54.970Z,9.91
